sensor_id;sensor_type;location;lat;lon;timestamp;pressure;altitude;pressure_sealevel;temperature;humidity
54453;BME280;40363;52.270;10.546;2023-11-21T00:02:01;76462.56;;;-147.06;100.00
54453;BME280;40363;52.270;10.546;2023-11-21T00:04:30;76454.34;;;-147.06;100.00
54453;BME280;40363;52.270;10.546;2023-11-21T00:07:00;76464.63;;;-147.06;100.00
54453;BME280;40363;52.270;10.546;2023-11-21T00:09:31;76460.53;;;-147.06;100.00
54453;BME280;40363;52.270;10.546;2023-11-21T00:11:57;76460.53;;;-147.06;100.00
54453;BME280;40363;52.270;10.546;2023-11-21T00:14:26;76462.56;;;-147.06;100.00
54453;BME280;40363;52.270;10.546;2023-11-21T00:16:52;76470.78;;;-147.06;100.00
54453;BME280;40363;52.270;10.546;2023-11-21T00:19:19;76460.53;;;-147.06;100.00
54453;BME280;40363;52.270;10.546;2023-11-21T00:21:46;76472.84;;;-147.06;100.00
54453;BME280;40363;52.270;10.546;2023-11-21T00:24:13;76472.84;;;-147.06;100.00
54453;BME280;40363;52.270;10.546;2023-11-21T00:26:39;76474.91;;;-147.06;100.00
54453;BME280;40363;52.270;10.546;2023-11-21T00:29:06;76474.91;;;-147.06;100.00
54453;BME280;40363;52.270;10.546;2023-11-21T00:31:35;76483.13;;;-147.06;100.00
54453;BME280;40363;52.270;10.546;2023-11-21T00:34:02;76483.13;;;-147.06;100.00
54453;BME280;40363;52.270;10.546;2023-11-21T00:36:30;76487.25;;;-147.06;100.00
54453;BME280;40363;52.270;10.546;2023-11-21T00:38:57;76489.28;;;-147.06;100.00
54453;BME280;40363;52.270;10.546;2023-11-21T00:41:24;76489.28;;;-147.06;100.00
54453;BME280;40363;52.270;10.546;2023-11-21T00:43:52;76497.50;;;-147.06;100.00
54453;BME280;40363;52.270;10.546;2023-11-21T00:46:19;76497.50;;;-147.06;100.00
54453;BME280;40363;52.270;10.546;2023-11-21T00:48:47;76505.75;;;-147.06;100.00
54453;BME280;40363;52.270;10.546;2023-11-21T00:51:14;76505.75;;;-147.06;100.00
54453;BME280;40363;52.270;10.546;2023-11-21T00:53:41;76507.78;;;-147.06;100.00
54453;BME280;40363;52.270;10.546;2023-11-21T00:56:08;76505.75;;;-147.06;100.00
54453;BME280;40363;52.270;10.546;2023-11-21T01:01:41;76516.00;;;-147.06;100.00
54453;BME280;40363;52.270;10.546;2023-11-21T01:04:09;76518.06;;;-147.06;100.00
54453;BME280;40363;52.270;10.546;2023-11-21T01:06:36;76528.34;;;-147.06;100.00
54453;BME280;40363;52.270;10.546;2023-11-21T01:09:03;76522.19;;;-147.06;100.00
54453;BME280;40363;52.270;10.546;2023-11-21T01:11:48;76522.19;;;-147.06;100.00
54453;BME280;40363;52.270;10.546;2023-11-21T01:14:15;76522.19;;;-147.06;100.00
54453;BME280;40363;52.270;10.546;2023-11-21T01:16:42;76513.97;;;-147.06;100.00
54453;BME280;40363;52.270;10.546;2023-11-21T01:19:11;76520.13;;;-147.06;100.00
54453;BME280;40363;52.270;10.546;2023-11-21T01:21:38;76524.22;;;-147.06;100.00
54453;BME280;40363;52.270;10.546;2023-11-21T01:24:05;76530.41;;;-147.06;100.00
54453;BME280;40363;52.270;10.546;2023-11-21T01:26:32;76530.41;;;-147.06;100.00
54453;BME280;40363;52.270;10.546;2023-11-21T01:28:59;76530.41;;;-147.06;100.00
54453;BME280;40363;52.270;10.546;2023-11-21T01:31:26;76530.41;;;-147.06;100.00
54453;BME280;40363;52.270;10.546;2023-11-21T01:33:54;76536.56;;;-147.06;100.00
54453;BME280;40363;52.270;10.546;2023-11-21T01:36:23;76526.28;;;-147.06;100.00
54453;BME280;40363;52.270;10.546;2023-11-21T01:38:49;76540.69;;;-147.06;100.00
54453;BME280;40363;52.270;10.546;2023-11-21T01:41:16;76542.72;;;-147.06;100.00
54453;BME280;40363;52.270;10.546;2023-11-21T01:43:43;76546.84;;;-147.06;100.00
54453;BME280;40363;52.270;10.546;2023-11-21T01:46:10;76550.97;;;-147.06;100.00
54453;BME280;40363;52.270;10.546;2023-11-21T01:48:36;76555.06;;;-147.06;100.00
54453;BME280;40363;52.270;10.546;2023-11-21T01:51:04;76559.19;;;-147.06;100.00
54453;BME280;40363;52.270;10.546;2023-11-21T01:53:32;76555.06;;;-147.06;100.00
54453;BME280;40363;52.270;10.546;2023-11-21T01:55:59;76553.00;;;-147.06;100.00
54453;BME280;40363;52.270;10.546;2023-11-21T01:58:26;76561.22;;;-147.06;100.00
54453;BME280;40363;52.270;10.546;2023-11-21T02:00:53;76565.34;;;-147.06;100.00
54453;BME280;40363;52.270;10.546;2023-11-21T02:03:21;76567.41;;;-147.06;100.00
54453;BME280;40363;52.270;10.546;2023-11-21T02:05:47;76563.28;;;-147.06;100.00
54453;BME280;40363;52.270;10.546;2023-11-21T02:08:14;76563.28;;;-147.06;100.00
54453;BME280;40363;52.270;10.546;2023-11-21T02:10:42;76573.56;;;-147.06;100.00
54453;BME280;40363;52.270;10.546;2023-11-21T02:13:09;76573.56;;;-147.06;100.00
54453;BME280;40363;52.270;10.546;2023-11-21T02:15:36;76571.50;;;-147.06;100.00
54453;BME280;40363;52.270;10.546;2023-11-21T02:18:04;76567.41;;;-147.06;100.00
54453;BME280;40363;52.270;10.546;2023-11-21T02:20:31;76569.44;;;-147.06;100.00
54453;BME280;40363;52.270;10.546;2023-11-21T02:23:01;76555.06;;;-147.06;100.00
54453;BME280;40363;52.270;10.546;2023-11-21T02:25:29;76563.28;;;-147.06;100.00
54453;BME280;40363;52.270;10.546;2023-11-21T02:27:58;76567.41;;;-147.06;100.00
54453;BME280;40363;52.270;10.546;2023-11-21T02:30:25;76573.56;;;-147.06;100.00
54453;BME280;40363;52.270;10.546;2023-11-21T02:32:51;76573.56;;;-147.06;100.00
54453;BME280;40363;52.270;10.546;2023-11-21T02:35:19;76571.50;;;-147.06;100.00
54453;BME280;40363;52.270;10.546;2023-11-21T02:37:46;76567.41;;;-147.06;100.00
54453;BME280;40363;52.270;10.546;2023-11-21T02:40:14;76567.41;;;-147.06;100.00
54453;BME280;40363;52.270;10.546;2023-11-21T02:42:43;76571.50;;;-147.06;100.00
54453;BME280;40363;52.270;10.546;2023-11-21T02:45:10;76575.63;;;-147.06;100.00
54453;BME280;40363;52.270;10.546;2023-11-21T02:47:38;76571.50;;;-147.06;100.00
54453;BME280;40363;52.270;10.546;2023-11-21T02:50:05;76561.22;;;-147.06;100.00
54453;BME280;40363;52.270;10.546;2023-11-21T02:52:33;76567.41;;;-147.06;100.00
54453;BME280;40363;52.270;10.546;2023-11-21T02:55:00;76571.50;;;-147.06;100.00
54453;BME280;40363;52.270;10.546;2023-11-21T02:57:28;76573.56;;;-147.06;100.00
54453;BME280;40363;52.270;10.546;2023-11-21T02:59:56;76571.50;;;-147.06;100.00
54453;BME280;40363;52.270;10.546;2023-11-21T03:02:23;76567.41;;;-147.06;100.00
54453;BME280;40363;52.270;10.546;2023-11-21T03:04:49;76575.63;;;-147.06;100.00
54453;BME280;40363;52.270;10.546;2023-11-21T03:07:16;76575.63;;;-147.06;100.00
54453;BME280;40363;52.270;10.546;2023-11-21T03:09:44;76581.78;;;-147.06;100.00
54453;BME280;40363;52.270;10.546;2023-11-21T03:12:12;76579.72;;;-147.06;100.00
54453;BME280;40363;52.270;10.546;2023-11-21T03:14:40;76579.72;;;-147.06;100.00
54453;BME280;40363;52.270;10.546;2023-11-21T03:17:07;76575.63;;;-147.06;100.00
54453;BME280;40363;52.270;10.546;2023-11-21T03:19:33;76577.69;;;-147.06;100.00
54453;BME280;40363;52.270;10.546;2023-11-21T03:22:00;76583.84;;;-147.06;100.00
54453;BME280;40363;52.270;10.546;2023-11-21T03:24:27;76583.84;;;-147.06;100.00
54453;BME280;40363;52.270;10.546;2023-11-21T03:26:54;76583.84;;;-147.06;100.00
54453;BME280;40363;52.270;10.546;2023-11-21T03:29:21;76583.84;;;-147.06;100.00
54453;BME280;40363;52.270;10.546;2023-11-21T03:31:49;76581.78;;;-147.06;100.00
54453;BME280;40363;52.270;10.546;2023-11-21T03:34:22;76590.00;;;-147.06;100.00
54453;BME280;40363;52.270;10.546;2023-11-21T03:36:49;76594.13;;;-147.06;100.00
54453;BME280;40363;52.270;10.546;2023-11-21T03:39:15;76596.19;;;-147.06;100.00
54453;BME280;40363;52.270;10.546;2023-11-21T03:41:42;76602.34;;;-147.06;100.00
54453;BME280;40363;52.270;10.546;2023-11-21T03:44:09;76608.50;;;-147.06;100.00
54453;BME280;40363;52.270;10.546;2023-11-21T03:46:35;76608.50;;;-147.06;100.00
54453;BME280;40363;52.270;10.546;2023-11-21T03:49:03;76606.44;;;-147.06;100.00
54453;BME280;40363;52.270;10.546;2023-11-21T03:51:30;76616.72;;;-147.06;100.00
54453;BME280;40363;52.270;10.546;2023-11-21T03:53:57;76620.84;;;-147.06;100.00
54453;BME280;40363;52.270;10.546;2023-11-21T03:56:23;76624.94;;;-147.06;100.00
54453;BME280;40363;52.270;10.546;2023-11-21T03:58:50;76624.94;;;-147.06;100.00
54453;BME280;40363;52.270;10.546;2023-11-21T04:01:20;76620.84;;;-147.06;100.00
54453;BME280;40363;52.270;10.546;2023-11-21T04:03:48;76627.00;;;-147.06;100.00
54453;BME280;40363;52.270;10.546;2023-11-21T04:06:17;76624.94;;;-147.06;100.00
54453;BME280;40363;52.270;10.546;2023-11-21T04:08:44;76624.94;;;-147.06;100.00
54453;BME280;40363;52.270;10.546;2023-11-21T04:11:11;76624.94;;;-147.06;100.00
54453;BME280;40363;52.270;10.546;2023-11-21T04:13:38;76624.94;;;-147.06;100.00
54453;BME280;40363;52.270;10.546;2023-11-21T04:16:05;76622.91;;;-147.06;100.00
54453;BME280;40363;52.270;10.546;2023-11-21T04:18:33;76622.91;;;-147.06;100.00
54453;BME280;40363;52.270;10.546;2023-11-21T04:21:00;76620.84;;;-147.06;100.00
54453;BME280;40363;52.270;10.546;2023-11-21T04:23:29;76620.84;;;-147.06;100.00
54453;BME280;40363;52.270;10.546;2023-11-21T04:25:56;76635.22;;;-147.06;100.00
54453;BME280;40363;52.270;10.546;2023-11-21T04:28:23;76629.06;;;-147.06;100.00
54453;BME280;40363;52.270;10.546;2023-11-21T04:30:50;76643.44;;;-147.06;100.00
54453;BME280;40363;52.270;10.546;2023-11-21T04:33:17;76639.34;;;-147.06;100.00
54453;BME280;40363;52.270;10.546;2023-11-21T04:35:43;76633.16;;;-147.06;100.00
54453;BME280;40363;52.270;10.546;2023-11-21T04:38:10;76639.34;;;-147.06;100.00
54453;BME280;40363;52.270;10.546;2023-11-21T04:40:38;76637.28;;;-147.06;100.00
54453;BME280;40363;52.270;10.546;2023-11-21T04:43:05;76641.41;;;-147.06;100.00
54453;BME280;40363;52.270;10.546;2023-11-21T04:45:31;76639.34;;;-147.06;100.00
54453;BME280;40363;52.270;10.546;2023-11-21T04:47:58;76645.50;;;-147.06;100.00
54453;BME280;40363;52.270;10.546;2023-11-21T04:50:25;76653.72;;;-147.06;100.00
54453;BME280;40363;52.270;10.546;2023-11-21T04:52:52;76653.72;;;-147.06;100.00
54453;BME280;40363;52.270;10.546;2023-11-21T04:55:19;76657.84;;;-147.06;100.00
54453;BME280;40363;52.270;10.546;2023-11-21T04:57:49;76661.94;;;-147.06;100.00
54453;BME280;40363;52.270;10.546;2023-11-21T05:00:17;76664.00;;;-147.06;100.00
54453;BME280;40363;52.270;10.546;2023-11-21T05:02:44;76670.16;;;-147.06;100.00
54453;BME280;40363;52.270;10.546;2023-11-21T05:05:11;76676.34;;;-147.06;100.00
54453;BME280;40363;52.270;10.546;2023-11-21T05:07:39;76672.22;;;-147.06;100.00
54453;BME280;40363;52.270;10.546;2023-11-21T05:10:07;76678.41;;;-147.06;100.00
54453;BME280;40363;52.270;10.546;2023-11-21T05:12:36;76676.34;;;-147.06;100.00
54453;BME280;40363;52.270;10.546;2023-11-21T05:15:06;76678.41;;;-147.06;100.00
54453;BME280;40363;52.270;10.546;2023-11-21T05:17:35;76682.50;;;-147.06;100.00
54453;BME280;40363;52.270;10.546;2023-11-21T05:20:01;76686.63;;;-147.06;100.00
54453;BME280;40363;52.270;10.546;2023-11-21T05:22:29;76688.66;;;-147.06;100.00
54453;BME280;40363;52.270;10.546;2023-11-21T05:24:56;76690.72;;;-147.06;100.00
54453;BME280;40363;52.270;10.546;2023-11-21T05:27:24;76688.66;;;-147.06;100.00
54453;BME280;40363;52.270;10.546;2023-11-21T05:29:51;76688.66;;;-147.06;100.00
54453;BME280;40363;52.270;10.546;2023-11-21T05:32:19;76703.06;;;-147.06;100.00
54453;BME280;40363;52.270;10.546;2023-11-21T05:34:48;76694.84;;;-147.06;100.00
54453;BME280;40363;52.270;10.546;2023-11-21T05:37:48;76701.00;;;-147.06;100.00
54453;BME280;40363;52.270;10.546;2023-11-21T05:40:15;76703.06;;;-147.06;100.00
54453;BME280;40363;52.270;10.546;2023-11-21T05:42:42;76701.00;;;-147.06;100.00
54453;BME280;40363;52.270;10.546;2023-11-21T05:45:09;76694.84;;;-147.06;100.00
54453;BME280;40363;52.270;10.546;2023-11-21T05:47:39;76703.06;;;-147.06;100.00
54453;BME280;40363;52.270;10.546;2023-11-21T05:50:07;76694.84;;;-147.06;100.00
54453;BME280;40363;52.270;10.546;2023-11-21T05:52:36;76703.06;;;-147.06;100.00
54453;BME280;40363;52.270;10.546;2023-11-21T05:55:04;76715.38;;;-147.06;100.00
54453;BME280;40363;52.270;10.546;2023-11-21T05:57:33;76723.63;;;-147.06;100.00
54453;BME280;40363;52.270;10.546;2023-11-21T06:00:02;76731.84;;;-147.06;100.00
54453;BME280;40363;52.270;10.546;2023-11-21T06:02:38;76742.09;;;-147.06;100.00
54453;BME280;40363;52.270;10.546;2023-11-21T06:05:06;76746.22;;;-147.06;100.00
54453;BME280;40363;52.270;10.546;2023-11-21T06:07:33;76754.44;;;-147.06;100.00
54453;BME280;40363;52.270;10.546;2023-11-21T06:10:01;76770.88;;;-147.06;100.00
54453;BME280;40363;52.270;10.546;2023-11-21T06:12:28;76768.84;;;-147.06;100.00
54453;BME280;40363;52.270;10.546;2023-11-21T06:14:55;76779.13;;;-147.06;100.00
54453;BME280;40363;52.270;10.546;2023-11-21T06:17:22;76793.50;;;-147.06;100.00
54453;BME280;40363;52.270;10.546;2023-11-21T06:19:51;76805.84;;;-147.06;100.00
54453;BME280;40363;52.270;10.546;2023-11-21T06:22:21;76820.22;;;-147.06;100.00
54453;BME280;40363;52.270;10.546;2023-11-21T06:24:47;76836.66;;;-147.06;100.00
54453;BME280;40363;52.270;10.546;2023-11-21T06:27:14;76849.00;;;-147.06;100.00
54453;BME280;40363;52.270;10.546;2023-11-21T06:29:41;76863.38;;;-147.06;100.00
54453;BME280;40363;52.270;10.546;2023-11-21T06:32:08;76869.56;;;-147.06;100.00
54453;BME280;40363;52.270;10.546;2023-11-21T06:34:35;76875.72;;;-147.06;100.00
54453;BME280;40363;52.270;10.546;2023-11-21T06:37:03;76888.06;;;-147.06;100.00
54453;BME280;40363;52.270;10.546;2023-11-21T06:39:30;76904.50;;;-147.06;100.00
54453;BME280;40363;52.270;10.546;2023-11-21T06:41:57;76906.56;;;-147.06;100.00
54453;BME280;40363;52.270;10.546;2023-11-21T06:44:26;76912.72;;;-147.06;100.00
54453;BME280;40363;52.270;10.546;2023-11-21T06:46:52;76912.72;;;-147.06;100.00
54453;BME280;40363;52.270;10.546;2023-11-21T06:49:19;76931.22;;;-147.06;100.00
54453;BME280;40363;52.270;10.546;2023-11-21T06:51:46;76957.94;;;-147.06;100.00
54453;BME280;40363;52.270;10.546;2023-11-21T06:54:14;76976.44;;;-147.06;100.00
54453;BME280;40363;52.270;10.546;2023-11-21T06:56:40;76976.44;;;-147.06;100.00
54453;BME280;40363;52.270;10.546;2023-11-21T06:59:07;76986.72;;;-147.06;100.00
54453;BME280;40363;52.270;10.546;2023-11-21T07:01:34;76997.00;;;-147.06;100.00
54453;BME280;40363;52.270;10.546;2023-11-21T07:04:04;77005.22;;;-147.06;100.00
54453;BME280;40363;52.270;10.546;2023-11-21T07:06:31;77015.50;;;-147.06;100.00
54453;BME280;40363;52.270;10.546;2023-11-21T07:08:58;77017.56;;;-147.06;100.00
54453;BME280;40363;52.270;10.546;2023-11-21T07:11:27;77023.72;;;-147.06;100.00
54453;BME280;40363;52.270;10.546;2023-11-21T07:13:54;77038.13;;;-147.06;100.00
54453;BME280;40363;52.270;10.546;2023-11-21T07:16:21;77031.94;;;-147.06;100.00
54453;BME280;40363;52.270;10.546;2023-11-21T07:18:49;77040.16;;;-147.06;100.00
54453;BME280;40363;52.270;10.546;2023-11-21T07:21:16;77034.00;;;-147.06;100.00
54453;BME280;40363;52.270;10.546;2023-11-21T07:23:43;77042.22;;;-147.06;100.00
54453;BME280;40363;52.270;10.546;2023-11-21T07:26:09;77038.13;;;-147.06;100.00
54453;BME280;40363;52.270;10.546;2023-11-21T07:28:37;77040.16;;;-147.06;100.00
54453;BME280;40363;52.270;10.546;2023-11-21T07:31:05;77044.28;;;-147.06;100.00
54453;BME280;40363;52.270;10.546;2023-11-21T07:33:31;77044.28;;;-147.06;100.00
54453;BME280;40363;52.270;10.546;2023-11-21T07:35:58;77048.41;;;-147.06;100.00
54453;BME280;40363;52.270;10.546;2023-11-21T07:38:24;77054.56;;;-147.06;100.00
54453;BME280;40363;52.270;10.546;2023-11-21T07:40:51;77054.56;;;-147.06;100.00
54453;BME280;40363;52.270;10.546;2023-11-21T07:43:18;77073.06;;;-147.06;100.00
54453;BME280;40363;52.270;10.546;2023-11-21T07:45:47;77068.94;;;-147.06;100.00
54453;BME280;40363;52.270;10.546;2023-11-21T07:48:14;77077.19;;;-147.06;100.00
54453;BME280;40363;52.270;10.546;2023-11-21T07:50:40;77077.19;;;-147.06;100.00
54453;BME280;40363;52.270;10.546;2023-11-21T07:53:07;77091.56;;;-147.06;100.00
54453;BME280;40363;52.270;10.546;2023-11-21T07:55:34;77093.63;;;-147.06;100.00
54453;BME280;40363;52.270;10.546;2023-11-21T07:58:01;77101.84;;;-147.06;100.00
54453;BME280;40363;52.270;10.546;2023-11-21T08:00:29;77114.19;;;-147.06;100.00
54453;BME280;40363;52.270;10.546;2023-11-21T08:02:58;77118.28;;;-147.06;100.00
54453;BME280;40363;52.270;10.546;2023-11-21T08:05:24;77122.41;;;-147.06;100.00
54453;BME280;40363;52.270;10.546;2023-11-21T08:07:51;77128.56;;;-147.06;100.00
54453;BME280;40363;52.270;10.546;2023-11-21T08:10:18;77138.84;;;-147.06;100.00
54453;BME280;40363;52.270;10.546;2023-11-21T08:12:46;77140.91;;;-147.06;100.00
54453;BME280;40363;52.270;10.546;2023-11-21T08:15:13;77151.19;;;-147.06;100.00
54453;BME280;40363;52.270;10.546;2023-11-21T08:17:40;77151.19;;;-147.06;100.00
54453;BME280;40363;52.270;10.546;2023-11-21T08:20:10;77153.22;;;-147.06;100.00
54453;BME280;40363;52.270;10.546;2023-11-21T08:22:37;77142.97;;;-147.06;100.00
54453;BME280;40363;52.270;10.546;2023-11-21T08:25:07;77138.84;;;-147.06;100.00
54453;BME280;40363;52.270;10.546;2023-11-21T08:27:33;77145.00;;;-147.06;100.00
54453;BME280;40363;52.270;10.546;2023-11-21T08:30:01;77134.72;;;-147.06;100.00
54453;BME280;40363;52.270;10.546;2023-11-21T08:32:28;77136.78;;;-147.06;100.00
54453;BME280;40363;52.270;10.546;2023-11-21T08:34:55;77134.72;;;-147.06;100.00
54453;BME280;40363;52.270;10.546;2023-11-21T08:37:24;77138.84;;;-147.06;100.00
54453;BME280;40363;52.270;10.546;2023-11-21T08:39:52;77120.34;;;-147.06;100.00
54453;BME280;40363;52.270;10.546;2023-11-21T08:42:19;77112.13;;;-147.06;100.00
54453;BME280;40363;52.270;10.546;2023-11-21T08:44:46;77103.91;;;-147.06;100.00
54453;BME280;40363;52.270;10.546;2023-11-21T08:47:13;77122.41;;;-147.06;100.00
54453;BME280;40363;52.270;10.546;2023-11-21T08:49:39;77132.69;;;-147.06;100.00
54453;BME280;40363;52.270;10.546;2023-11-21T08:52:06;77149.13;;;-147.06;100.00
54453;BME280;40363;52.270;10.546;2023-11-21T08:54:34;77136.78;;;-147.06;100.00
54453;BME280;40363;52.270;10.546;2023-11-21T08:57:02;77151.19;;;-147.06;100.00
54453;BME280;40363;52.270;10.546;2023-11-21T08:59:28;77130.63;;;-147.06;100.00
54453;BME280;40363;52.270;10.546;2023-11-21T09:01:55;77142.97;;;-147.06;100.00
54453;BME280;40363;52.270;10.546;2023-11-21T09:04:21;77142.97;;;-147.06;100.00
54453;BME280;40363;52.270;10.546;2023-11-21T09:06:48;77142.97;;;-147.06;100.00
54453;BME280;40363;52.270;10.546;2023-11-21T09:09:15;77151.19;;;-147.06;100.00
54453;BME280;40363;52.270;10.546;2023-11-21T09:11:43;77147.06;;;-147.06;100.00
54453;BME280;40363;52.270;10.546;2023-11-21T09:14:11;77159.41;;;-147.06;100.00
54453;BME280;40363;52.270;10.546;2023-11-21T09:16:38;77171.72;;;-147.06;100.00
54453;BME280;40363;52.270;10.546;2023-11-21T09:19:05;77167.63;;;-147.06;100.00
54453;BME280;40363;52.270;10.546;2023-11-21T09:21:32;77153.22;;;-147.06;100.00
54453;BME280;40363;52.270;10.546;2023-11-21T09:23:59;77149.13;;;-147.06;100.00
54453;BME280;40363;52.270;10.546;2023-11-21T09:26:26;77151.19;;;-147.06;100.00
54453;BME280;40363;52.270;10.546;2023-11-21T09:28:54;77147.06;;;-147.06;100.00
54453;BME280;40363;52.270;10.546;2023-11-21T09:31:21;77157.34;;;-147.06;100.00
54453;BME280;40363;52.270;10.546;2023-11-21T09:33:49;77157.34;;;-147.06;100.00
54453;BME280;40363;52.270;10.546;2023-11-21T09:36:16;77145.00;;;-147.06;100.00
54453;BME280;40363;52.270;10.546;2023-11-21T09:38:43;77153.22;;;-147.06;100.00
54453;BME280;40363;52.270;10.546;2023-11-21T09:41:15;77155.28;;;-147.06;100.00
54453;BME280;40363;52.270;10.546;2023-11-21T09:43:46;77140.91;;;-147.06;100.00
54453;BME280;40363;52.270;10.546;2023-11-21T09:46:16;77134.72;;;-147.06;100.00
54453;BME280;40363;52.270;10.546;2023-11-21T09:48:48;77134.72;;;-147.06;100.00
54453;BME280;40363;52.270;10.546;2023-11-21T09:51:18;77130.63;;;-147.06;99.10
54453;BME280;40363;52.270;10.546;2023-11-21T09:53:49;77132.69;;;-147.06;99.08
54453;BME280;40363;52.270;10.546;2023-11-21T09:56:17;77157.34;;;-147.06;100.00
54453;BME280;40363;52.270;10.546;2023-11-21T09:58:50;77138.84;;;-147.06;99.72
54453;BME280;40363;52.270;10.546;2023-11-21T10:01:19;77136.78;;;-147.06;100.00
54453;BME280;40363;52.270;10.546;2023-11-21T10:03:47;77130.63;;;-147.06;100.00
54453;BME280;40363;52.270;10.546;2023-11-21T10:06:14;77140.91;;;-147.06;100.00
54453;BME280;40363;52.270;10.546;2023-11-21T10:08:42;77177.91;;;-147.06;100.00
54453;BME280;40363;52.270;10.546;2023-11-21T10:11:10;77159.41;;;-147.06;100.00
54453;BME280;40363;52.270;10.546;2023-11-21T10:13:40;77167.63;;;-147.06;99.86
54453;BME280;40363;52.270;10.546;2023-11-21T10:16:07;77184.06;;;-147.06;100.00
54453;BME280;40363;52.270;10.546;2023-11-21T10:18:38;77190.22;;;-147.06;98.94
54453;BME280;40363;52.270;10.546;2023-11-21T10:21:06;77177.91;;;-147.06;98.13
54453;BME280;40363;52.270;10.546;2023-11-21T10:23:34;77182.00;;;-147.06;100.00
54453;BME280;40363;52.270;10.546;2023-11-21T10:26:01;77182.00;;;-147.06;98.23
54453;BME280;40363;52.270;10.546;2023-11-21T10:28:35;77182.00;;;-147.06;99.42
54453;BME280;40363;52.270;10.546;2023-11-21T10:31:02;77188.19;;;-147.06;99.13
54453;BME280;40363;52.270;10.546;2023-11-21T10:33:32;77192.28;;;-147.06;98.98
54453;BME280;40363;52.270;10.546;2023-11-21T10:36:01;77196.41;;;-147.06;97.26
54453;BME280;40363;52.270;10.546;2023-11-21T10:38:27;77190.22;;;-147.06;98.05
54453;BME280;40363;52.270;10.546;2023-11-21T10:40:55;77196.41;;;-147.06;96.07
54453;BME280;40363;52.270;10.546;2023-11-21T10:43:25;77182.00;;;-147.06;99.54
54453;BME280;40363;52.270;10.546;2023-11-21T10:45:51;77196.41;;;-147.06;96.47
54453;BME280;40363;52.270;10.546;2023-11-21T10:48:18;77184.06;;;-147.06;95.82
54453;BME280;40363;52.270;10.546;2023-11-21T10:50:47;77198.47;;;-147.06;97.21
54453;BME280;40363;52.270;10.546;2023-11-21T10:53:15;77184.06;;;-147.06;97.63
54453;BME280;40363;52.270;10.546;2023-11-21T10:55:42;77194.34;;;-147.06;97.48
54453;BME280;40363;52.270;10.546;2023-11-21T10:58:10;77173.78;;;-147.06;97.72
54453;BME280;40363;52.270;10.546;2023-11-21T11:00:39;77159.41;;;-147.06;97.17
54453;BME280;40363;52.270;10.546;2023-11-21T11:03:06;77155.28;;;-147.06;95.96
54453;BME280;40363;52.270;10.546;2023-11-21T11:05:40;77186.13;;;-147.06;96.14
54453;BME280;40363;52.270;10.546;2023-11-21T11:08:12;77179.97;;;-147.06;95.27
54453;BME280;40363;52.270;10.546;2023-11-21T11:10:45;77177.91;;;-147.06;95.37
54453;BME280;40363;52.270;10.546;2023-11-21T11:13:13;77159.41;;;-147.06;95.39
54453;BME280;40363;52.270;10.546;2023-11-21T11:15:41;77173.78;;;-147.06;95.47
54453;BME280;40363;52.270;10.546;2023-11-21T11:18:09;77169.69;;;-147.06;96.73
54453;BME280;40363;52.270;10.546;2023-11-21T11:20:38;77175.84;;;-147.06;96.75
54453;BME280;40363;52.270;10.546;2023-11-21T11:23:17;77184.06;;;-147.06;95.26
54453;BME280;40363;52.270;10.546;2023-11-21T11:25:56;77200.50;;;-147.06;93.81
54453;BME280;40363;52.270;10.546;2023-11-21T11:28:35;77202.56;;;-147.06;95.48
54453;BME280;40363;52.270;10.546;2023-11-21T11:31:12;77194.34;;;-147.06;95.22
54453;BME280;40363;52.270;10.546;2023-11-21T11:33:45;77173.78;;;-147.06;96.12
54453;BME280;40363;52.270;10.546;2023-11-21T11:36:18;77177.91;;;-147.06;95.81
54453;BME280;40363;52.270;10.546;2023-11-21T11:38:48;77188.19;;;-147.06;96.27
54453;BME280;40363;52.270;10.546;2023-11-21T11:41:24;77186.13;;;-147.06;96.49
54453;BME280;40363;52.270;10.546;2023-11-21T11:43:52;77186.13;;;-147.06;96.22
54453;BME280;40363;52.270;10.546;2023-11-21T11:46:18;77184.06;;;-147.06;96.22
54453;BME280;40363;52.270;10.546;2023-11-21T11:48:48;77171.72;;;-147.06;94.84
54453;BME280;40363;52.270;10.546;2023-11-21T11:51:15;77212.84;;;-147.06;94.24
54453;BME280;40363;52.270;10.546;2023-11-21T11:53:46;77210.78;;;-147.06;95.49
54453;BME280;40363;52.270;10.546;2023-11-21T11:56:21;77216.97;;;-147.06;94.15
54453;BME280;40363;52.270;10.546;2023-11-21T11:58:53;77210.78;;;-147.06;94.64
54453;BME280;40363;52.270;10.546;2023-11-21T12:01:20;77208.75;;;-147.06;93.37
54453;BME280;40363;52.270;10.546;2023-11-21T12:07:00;77202.56;;;-147.06;93.49
54453;BME280;40363;52.270;10.546;2023-11-21T12:09:29;77194.34;;;-147.06;93.53
54453;BME280;40363;52.270;10.546;2023-11-21T12:11:56;77186.13;;;-147.06;94.82
54453;BME280;40363;52.270;10.546;2023-11-21T12:14:25;77192.28;;;-147.06;93.59
54453;BME280;40363;52.270;10.546;2023-11-21T12:16:52;77204.63;;;-147.06;90.76
54453;BME280;40363;52.270;10.546;2023-11-21T12:19:20;77206.69;;;-147.06;92.96
54453;BME280;40363;52.270;10.546;2023-11-21T12:21:48;77221.06;;;-147.06;93.03
54453;BME280;40363;52.270;10.546;2023-11-21T12:24:15;77229.28;;;-147.06;90.81
54453;BME280;40363;52.270;10.546;2023-11-21T12:26:43;77229.28;;;-147.06;91.59
54453;BME280;40363;52.270;10.546;2023-11-21T12:29:09;77225.19;;;-147.06;92.21
54453;BME280;40363;52.270;10.546;2023-11-21T12:31:40;77221.06;;;-147.06;91.46
54453;BME280;40363;52.270;10.546;2023-11-21T12:34:07;77221.06;;;-147.06;92.05